Orlando, FL (32827)

1:52 AM EST on February 24, 2017 (GMT -0500)
Orlando International | | Change Station

Elev 95 ft 28.43 °N, 81.32 °W | Updated 19 minutes ago

Scattered Clouds
Scattered Clouds
67 °F
Feels Like 67 °F
N
13
Wind Variable Wind from NNW

Today
High -- | Low -- °F
--% Chance of Precip.
Yesterday
High -- | Low -- °F
Precip. -- in
Pressure 29.75 in
Visibility 10.0 miles
Clouds Scattered Clouds 800 ft
Dew Point 64 °F
Humidity 90%
Rainfall 0.00 in
Snow Depth Not available.
6:54 AM 6:22 PM
Waning Crescent, 6% visible
SPECI KMCO 240633Z 34011KT 10SM SCT008 19/18 A2975 RMK AO2 T01940178
Pressure 29.75 in
Visibility 10.0 miles
Clouds Scattered Clouds 800 ft
Dew Point 64 °F
Humidity 90%
Rainfall 0.00 in
Snow Depth Not available.
6:54 AM 6:22 PM
Waning Crescent, 6% visible
SPECI KMCO 240633Z 34011KT 10SM SCT008 19/18 A2975 RMK AO2 T01940178

Get Your Daily Forecast Email!

Thanks for signing up!

Be on the lookout for a verification email in your inbox.

You'll start receiving the daily forecast at 8 AM.

×

10-Day Weather Forecast

Almanac

Astronomy

Feb. 24, 2017 Rise Set
Actual Time
Civil Twilight
Nautical Twilight
Astronomical Twilight
Moon
Length of Visible Light
Length of Day
Tomorrow will be .
, % of the Moon is Illuminated

Today's Extremes

State Highs State Lows

Community

WunderPhotos

Upload Photos

1,962,540 photos uploaded!

WunderBlog® & News

Nearby

Air Quality

  Air Quality AQ Index Pollutant
Not available.

Snow Depth

Station Depth Elevation

Earthquake Activity

City Distance Mag. Time & Date
Minimum magnitude displayed is 2.5.

Coastal Water Temperatures

Place Temperature

Stations

Nearby Weather Stations

Station Location Temp. Windchill Dew Point Humidity Wind Precip. Elev Updated Type
                   

Watches & Warnings

There are currently no watches in effect.